Time;durP1;ratioP1;P1;durP2;ratioP2;P2;SDS_P1;SDS_P2;PMS_P1;PMS_P2;Temp;Humidity;BMP_temperature;BMP_pressure;BME280_temperature;BME280_humidity;BME280_pressure;Samples;Min_cycle;Max_cycle;Signal;HPM_P1;HPM_P2
2023/06/11 00:00:09;;;;;;;6.72;3.08;;;23.30;83.40;;;;;;6158866;23;20013;-84
2023/06/11 00:02:34;;;;;;;6.65;3.13;;;23.30;82.50;;;;;;6187028;23;20013;-85
2023/06/11 00:05:03;;;;;;;8.48;3.45;;;23.30;82.80;;;;;;6161991;23;20342;-85
2023/06/11 00:07:30;;;;;;;6.95;3.28;;;23.20;82.50;;;;;;6186399;23;20063;-84
2023/06/11 00:09:56;;;;;;;7.00;3.30;;;23.20;82.90;;;;;;6186158;23;20363;-84
2023/06/11 00:12:21;;;;;;;7.03;3.60;;;23.10;83.30;;;;;;6160863;23;20024;-85
2023/06/11 00:14:47;;;;;;;6.95;3.40;;;23.10;83.20;;;;;;6185773;23;20032;-84
2023/06/11 00:17:12;;;;;;;7.78;3.83;;;23.10;83.20;;;;;;6161010;23;20385;-85
2023/06/11 00:19:40;;;;;;;6.60;3.42;;;23.00;83.20;;;;;;6185979;23;20023;-84
2023/06/11 00:22:06;;;;;;;8.68;3.42;;;22.90;83.30;;;;;;6159010;23;20013;-85
2023/06/11 00:24:32;;;;;;;8.13;3.45;;;22.90;83.30;;;;;;6186199;23;20063;-85
2023/06/11 00:27:01;;;;;;;7.40;3.38;;;22.90;83.60;;;;;;6159353;23;20315;-85
2023/06/11 00:29:27;;;;;;;7.47;3.53;;;22.80;83.40;;;;;;6158999;23;20075;-85
2023/06/11 00:31:53;;;;;;;7.93;3.30;;;22.80;83.60;;;;;;6186509;23;20021;-84
2023/06/11 00:34:19;;;;;;;7.00;3.15;;;22.80;83.70;;;;;;6160214;23;20048;-85
2023/06/11 00:36:45;;;;;;;7.68;3.75;;;22.70;83.90;;;;;;6186407;23;20013;-85
2023/06/11 00:39:11;;;;;;;6.97;3.63;;;22.70;83.70;;;;;;6160290;23;20013;-84
2023/06/11 00:41:38;;;;;;;6.55;3.38;;;22.60;83.90;;;;;;6184908;23;20434;-84
2023/06/11 00:44:05;;;;;;;10.05;3.70;;;22.60;83.90;;;;;;6186902;23;20013;-84
2023/06/11 00:46:31;;;;;;;7.88;4.00;;;22.50;84.10;;;;;;6160327;23;20434;-84
2023/06/11 00:48:58;;;;;;;7.63;3.83;;;22.50;83.90;;;;;;6159139;23;20014;-83
2023/06/11 00:51:25;;;;;;;7.07;3.53;;;22.40;84.20;;;;;;6159833;23;20017;-84
2023/06/11 00:53:52;;;;;;;6.28;3.60;;;22.40;84.20;;;;;;6160293;23;20096;-84
2023/06/11 00:56:19;;;;;;;9.35;4.35;;;22.40;83.90;;;;;;6158534;23;20108;-85
2023/06/11 00:58:49;;;;;;;7.40;3.55;;;22.30;83.30;;;;;;6186325;23;20079;-84
2023/06/11 01:01:25;;;;;;;7.47;3.80;;;22.30;83.60;;;;;;6159901;23;20021;-84
2023/06/11 01:03:56;;;;;;;8.63;3.95;;;22.20;83.80;;;;;;6184354;23;20453;-84
2023/06/11 01:06:24;;;;;;;8.38;4.05;;;22.20;84.10;;;;;;6160293;23;20017;-84
2023/06/11 01:08:57;;;;;;;7.88;3.70;;;22.10;83.70;;;;;;6187145;23;20020;-84
2023/06/11 01:11:23;;;;;;;7.38;3.83;;;22.10;84.30;;;;;;6159016;23;20017;-84
2023/06/11 01:13:49;;;;;;;8.60;4.00;;;22.10;84.60;;;;;;6187147;23;20075;-84
2023/06/11 01:16:27;;;;;;;6.93;3.97;;;22.00;84.70;;;;;;6186415;23;20017;-84
2023/06/11 01:19:03;;;;;;;7.60;4.07;;;22.00;84.60;;;;;;6158693;23;20031;-84
2023/06/11 01:21:38;;;;;;;7.07;4.30;;;22.00;84.30;;;;;;6160005;23;20477;-84
2023/06/11 01:24:24;;;;;;;6.85;3.97;;;21.90;84.70;;;;;;6159868;23;20017;-85
2023/06/11 01:27:15;;;;;;;7.82;4.38;;;21.80;85.00;;;;;;6186722;23;20362;-84
2023/06/11 01:29:45;;;;;;;6.70;4.05;;;21.80;83.60;;;;;;6160276;23;20013;-84
2023/06/11 01:32:12;;;;;;;7.50;4.28;;;21.70;84.40;;;;;;6184062;23;20041;-84
2023/06/11 01:34:41;;;;;;;8.48;4.68;;;21.70;85.40;;;;;;6184802;23;20016;-84
2023/06/11 01:37:09;;;;;;;7.45;4.32;;;21.60;86.00;;;;;;6184459;23;20028;-84
2023/06/11 01:39:35;;;;;;;7.72;4.07;;;21.70;86.30;;;;;;6157659;23;20013;-84
2023/06/11 01:42:01;;;;;;;6.22;3.90;;;21.60;86.30;;;;;;6184605;23;20017;-84
2023/06/11 01:44:28;;;;;;;7.93;4.45;;;21.70;86.40;;;;;;6158118;23;20072;-84
2023/06/11 01:46:53;;;;;;;7.72;4.53;;;21.60;86.40;;;;;;6183196;23;20023;-85
2023/06/11 01:49:19;;;;;;;8.27;4.43;;;21.60;86.40;;;;;;6158245;23;20088;-84
2023/06/11 01:51:45;;;;;;;6.43;4.38;;;21.60;87.10;;;;;;6158350;23;20051;-84
2023/06/11 01:54:10;;;;;;;6.78;3.97;;;21.60;86.90;;;;;;6158157;23;20052;-84
2023/06/11 01:56:36;;;;;;;6.32;4.60;;;21.60;86.90;;;;;;6158359;23;20158;-84
2023/06/11 01:59:01;;;;;;;6.95;4.28;;;21.50;86.90;;;;;;6184621;23;20017;-84
2023/06/11 02:01:28;;;;;;;7.97;4.65;;;21.60;86.70;;;;;;6185475;23;20049;-85
2023/06/11 02:03:55;;;;;;;5.82;4.10;;;21.60;86.80;;;;;;6158678;23;20516;-84
2023/06/11 02:06:20;;;;;;;7.80;4.60;;;21.50;86.80;;;;;;6158183;23;20092;-84
2023/06/11 02:08:46;;;;;;;6.57;4.15;;;21.50;86.90;;;;;;6184934;23;20363;-84
2023/06/11 02:11:12;;;;;;;6.85;4.68;;;21.50;86.90;;;;;;6158648;23;20047;-84
2023/06/11 02:13:38;;;;;;;6.45;4.45;;;21.50;86.80;;;;;;6157458;23;20437;-85
2023/06/11 02:16:03;;;;;;;5.95;4.32;;;21.50;86.70;;;;;;6158776;23;20027;-84
2023/06/11 02:18:29;;;;;;;6.97;4.57;;;21.40;86.40;;;;;;6158641;23;20041;-84
2023/06/11 02:20:55;;;;;;;7.75;4.20;;;21.40;86.60;;;;;;6184157;23;20015;-84
2023/06/11 02:23:21;;;;;;;6.50;4.35;;;21.40;86.70;;;;;;6158833;23;20020;-84
2023/06/11 02:25:46;;;;;;;7.55;4.30;;;21.30;86.50;;;;;;6158053;23;20040;-85
2023/06/11 02:28:12;;;;;;;7.15;4.35;;;21.30;86.70;;;;;;6184264;23;20017;-84
2023/06/11 02:30:38;;;;;;;5.97;4.00;;;21.30;86.70;;;;;;6185060;23;20020;-84
2023/06/11 02:33:03;;;;;;;6.75;4.32;;;21.30;86.60;;;;;;6184948;23;20516;-84
2023/06/11 02:35:29;;;;;;;7.05;4.70;;;21.20;86.60;;;;;;6184044;23;20021;-84
2023/06/11 02:37:55;;;;;;;7.68;4.60;;;21.20;86.40;;;;;;6185187;23;20013;-84
2023/06/11 02:40:20;;;;;;;8.60;4.65;;;21.10;86.50;;;;;;6158645;23;20103;-84
2023/06/11 02:42:46;;;;;;;6.28;4.40;;;21.10;86.60;;;;;;6157353;23;20017;-84
2023/06/11 02:45:11;;;;;;;6.57;4.20;;;21.10;86.50;;;;;;6158448;23;20020;-83
2023/06/11 02:47:37;;;;;;;6.65;4.70;;;21.00;86.40;;;;;;6158180;23;20099;-83
2023/06/11 02:50:03;;;;;;;7.18;4.55;;;21.00;86.40;;;;;;6157950;23;20025;-84
2023/06/11 02:52:29;;;;;;;8.55;4.72;;;20.90;86.40;;;;;;6185133;23;20389;-84
2023/06/11 02:54:54;;;;;;;6.15;4.25;;;20.90;86.50;;;;;;6158073;23;20017;-84
2023/06/11 02:57:20;;;;;;;6.47;4.47;;;20.80;86.60;;;;;;6184322;23;20097;-84
2023/06/11 02:59:45;;;;;;;6.05;4.38;;;20.80;86.60;;;;;;6184654;23;20486;-83
2023/06/11 03:02:11;;;;;;;6.40;4.65;;;20.80;86.70;;;;;;6184324;23;20013;-83
2023/06/11 03:04:37;;;;;;;6.07;4.50;;;20.70;87.00;;;;;;6158394;23;20021;-83
2023/06/11 03:07:02;;;;;;;7.47;4.32;;;20.70;86.40;;;;;;6159098;23;20020;-84
2023/06/11 03:09:28;;;;;;;7.30;4.75;;;20.60;86.20;;;;;;6159311;23;20032;-84
2023/06/11 03:11:53;;;;;;;6.80;4.63;;;20.60;86.30;;;;;;6160264;23;20029;-84
2023/06/11 03:14:20;;;;;;;7.32;4.53;;;20.60;86.00;;;;;;6160555;23;20346;-83
2023/06/11 03:16:47;;;;;;;6.22;4.60;;;20.50;86.00;;;;;;6185205;23;20021;-84
2023/06/11 03:19:12;;;;;;;7.28;4.90;;;20.50;85.90;;;;;;6186745;23;20055;-84
2023/06/11 03:21:38;;;;;;;7.18;5.10;;;20.50;86.00;;;;;;6186283;23;20013;-83
2023/06/11 03:24:04;;;;;;;6.82;4.90;;;20.40;86.10;;;;;;6186204;23;20048;-83
2023/06/11 03:26:29;;;;;;;6.05;4.82;;;20.40;85.90;;;;;;6186377;23;20019;-84
2023/06/11 03:28:55;;;;;;;7.22;4.80;;;20.40;85.80;;;;;;6186735;23;20025;-83
2023/06/11 03:31:21;;;;;;;8.43;4.85;;;20.30;86.30;;;;;;6186167;23;20028;-83
2023/06/11 03:33:46;;;;;;;6.55;5.10;;;20.30;86.90;;;;;;6159825;23;20031;-83
2023/06/11 03:36:12;;;;;;;7.80;4.95;;;20.30;87.40;;;;;;6187143;23;20449;-84
2023/06/11 03:38:38;;;;;;;7.50;5.00;;;20.30;87.80;;;;;;6158719;23;20028;-84
2023/06/11 03:41:03;;;;;;;6.82;5.07;;;20.30;87.80;;;;;;6160012;23;20104;-84
2023/06/11 03:43:29;;;;;;;6.53;5.03;;;20.30;87.50;;;;;;6160204;23;20020;-84
2023/06/11 03:45:54;;;;;;;8.20;5.28;;;20.30;87.10;;;;;;6185493;23;20021;-84
2023/06/11 03:48:20;;;;;;;7.10;4.95;;;20.20;87.40;;;;;;6186599;23;20021;-84
2023/06/11 03:50:46;;;;;;;7.80;5.32;;;20.20;87.60;;;;;;6185995;23;20036;-83
2023/06/11 03:53:11;;;;;;;7.20;4.97;;;20.20;87.70;;;;;;6159201;23;20017;-83
2023/06/11 03:55:37;;;;;;;6.78;4.88;;;20.20;87.60;;;;;;6185934;23;20437;-83
2023/06/11 03:58:02;;;;;;;7.88;4.78;;;20.20;87.60;;;;;;6160022;23;20453;-83
2023/06/11 04:00:31;;;;;;;8.45;4.75;;;20.10;87.70;;;;;;6159082;23;20021;-83
2023/06/11 04:03:00;;;;;;;8.23;4.93;;;20.10;87.50;;;;;;6186248;23;20013;-83
2023/06/11 04:05:26;;;;;;;7.70;5.45;;;20.10;87.40;;;;;;6159596;23;20027;-83
2023/06/11 04:07:51;;;;;;;6.50;5.30;;;20.10;87.80;;;;;;6185653;23;20092;-83
2023/06/11 04:10:17;;;;;;;8.48;5.15;;;20.00;87.70;;;;;;6186681;23;20024;-83
2023/06/11 04:12:42;;;;;;;7.50;5.40;;;20.10;87.50;;;;;;6158739;23;20024;-84
2023/06/11 04:15:08;;;;;;;7.32;5.53;;;20.00;87.50;;;;;;6159715;23;20021;-83
2023/06/11 04:17:34;;;;;;;7.25;5.45;;;20.00;88.30;;;;;;6186167;23;20072;-83
2023/06/11 04:20:00;;;;;;;7.53;5.60;;;20.00;87.70;;;;;;6185283;23;20017;-83
2023/06/11 04:22:26;;;;;;;7.88;5.78;;;20.00;87.30;;;;;;6186453;23;20329;-84
2023/06/11 04:24:53;;;;;;;7.53;5.45;;;19.90;87.40;;;;;;6185878;23;20020;-84
2023/06/11 04:27:20;;;;;;;6.65;5.07;;;19.90;87.40;;;;;;6185033;23;20013;-84
2023/06/11 04:29:46;;;;;;;9.68;6.05;;;19.90;87.30;;;;;;6186151;23;20031;-84
2023/06/11 04:32:16;;;;;;;8.27;5.53;;;19.90;87.70;;;;;;6159777;23;20017;-83
2023/06/11 04:34:43;;;;;;;7.80;5.65;;;19.90;88.10;;;;;;6159131;23;20100;-84
2023/06/11 04:37:09;;;;;;;6.70;5.25;;;19.90;87.80;;;;;;6159576;23;20025;-84
2023/06/11 04:39:35;;;;;;;8.43;5.72;;;19.90;88.10;;;;;;6159160;23;20024;-83
2023/06/11 04:42:02;;;;;;;7.50;5.70;;;19.90;88.10;;;;;;6184993;23;20041;-84
2023/06/11 04:44:28;;;;;;;7.60;5.63;;;19.90;88.10;;;;;;6186020;23;20342;-83
2023/06/11 04:46:57;;;;;;;7.65;5.60;;;19.90;88.20;;;;;;6158988;23;20032;-83
2023/06/11 04:49:23;;;;;;;7.65;5.88;;;19.90;88.20;;;;;;6158739;23;20044;-83
2023/06/11 04:51:52;;;;;;;7.93;5.65;;;19.90;88.10;;;;;;6185431;23;20039;-83
2023/06/11 04:54:21;;;;;;;8.32;5.65;;;19.90;88.10;;;;;;6186027;23;20394;-84
2023/06/11 04:56:47;;;;;;;7.85;5.57;;;19.90;88.10;;;;;;6184797;23;20017;-83
2023/06/11 04:59:13;;;;;;;9.10;6.20;;;19.80;88.00;;;;;;6185909;23;20093;-83
2023/06/11 05:01:46;;;;;;;7.28;5.70;;;19.80;87.90;;;;;;6159209;23;20013;-83
2023/06/11 05:04:13;;;;;;;10.13;5.82;;;19.90;87.90;;;;;;6159449;23;20508;-82
2023/06/11 05:06:44;;;;;;;7.55;5.78;;;19.80;87.60;;;;;;6185414;23;20136;-83
2023/06/11 05:09:11;;;;;;;8.05;5.93;;;19.80;87.40;;;;;;6185210;23;20021;-83
2023/06/11 05:11:37;;;;;;;8.23;5.88;;;19.80;87.50;;;;;;6185713;23;20333;-83
2023/06/11 05:14:02;;;;;;;8.38;6.53;;;19.80;87.60;;;;;;6160121;23;20025;-82
2023/06/11 05:16:28;;;;;;;8.88;5.93;;;19.70;87.80;;;;;;6158802;23;20353;-83
2023/06/11 05:18:54;;;;;;;9.52;6.40;;;19.70;88.20;;;;;;6185123;23;20021;-82
2023/06/11 05:21:19;;;;;;;8.30;6.20;;;19.70;88.20;;;;;;6185785;23;20025;-83
2023/06/11 05:23:45;;;;;;;9.82;6.38;;;19.70;87.90;;;;;;6185854;23;20068;-83
2023/06/11 05:26:13;;;;;;;8.48;6.35;;;19.70;88.20;;;;;;6161185;23;20028;-84
2023/06/11 05:28:40;;;;;;;8.20;6.25;;;19.70;88.50;;;;;;6186764;23;20013;-82
2023/06/11 05:31:06;;;;;;;10.57;6.68;;;19.70;88.10;;;;;;6158652;23;20338;-82
2023/06/11 05:33:32;;;;;;;8.65;6.63;;;19.70;88.60;;;;;;6186438;23;20013;-83
2023/06/11 05:36:02;;;;;;;9.43;6.47;;;19.80;88.80;;;;;;6187177;23;20012;-83
2023/06/11 05:38:28;;;;;;;9.95;6.85;;;19.80;88.70;;;;;;6159066;23;20028;-82
2023/06/11 05:40:54;;;;;;;7.68;6.35;;;19.80;88.30;;;;;;6159291;23;20013;-82
2023/06/11 05:43:20;;;;;;;10.02;6.15;;;19.80;88.80;;;;;;6186463;23;20067;-83
2023/06/11 05:45:50;;;;;;;7.80;6.22;;;19.80;89.00;;;;;;6184070;23;20016;-83
2023/06/11 05:48:16;;;;;;;10.23;6.22;;;19.80;88.90;;;;;;6185634;23;20009;-83
2023/06/11 05:50:42;;;;;;;9.20;7.20;;;19.90;89.00;;;;;;6159232;23;20019;-84
2023/06/11 05:53:09;;;;;;;8.23;6.53;;;20.00;89.10;;;;;;6185442;23;20417;-84
2023/06/11 05:55:35;;;;;;;7.32;6.13;;;19.90;89.00;;;;;;6159602;23;20465;-83
2023/06/11 05:58:01;;;;;;;8.10;6.03;;;20.00;88.70;;;;;;6186095;23;20017;-83
2023/06/11 06:00:27;;;;;;;9.13;6.40;;;20.00;89.00;;;;;;6158987;23;20027;-83
2023/06/11 06:02:53;;;;;;;8.45;6.40;;;20.00;88.60;;;;;;6160346;23;20517;-83
2023/06/11 06:05:19;;;;;;;8.00;6.10;;;20.00;88.60;;;;;;6158705;23;20023;-83
2023/06/11 06:07:44;;;;;;;7.88;6.50;;;20.00;88.80;;;;;;6186976;23;20036;-83
2023/06/11 06:10:10;;;;;;;10.32;6.63;;;20.10;88.60;;;;;;6160535;23;20318;-83
2023/06/11 06:12:36;;;;;;;8.52;6.22;;;20.10;88.90;;;;;;6134590;23;20021;-83
2023/06/11 06:15:02;;;;;;;10.52;6.88;;;20.10;88.50;;;;;;6159569;23;20056;-83
2023/06/11 06:17:28;;;;;;;9.57;6.32;;;20.20;89.10;;;;;;6160585;23;20028;-84
2023/06/11 06:19:53;;;;;;;9.05;6.90;;;20.20;89.10;;;;;;6184233;23;20017;-83
2023/06/11 06:22:19;;;;;;;9.05;6.88;;;20.30;89.10;;;;;;6186899;23;20438;-83
2023/06/11 06:24:45;;;;;;;8.73;6.32;;;20.30;89.10;;;;;;6158296;23;20024;-83
2023/06/11 06:27:11;;;;;;;9.93;6.43;;;20.30;89.20;;;;;;6157400;23;20463;-82
2023/06/11 06:29:38;;;;;;;8.27;6.30;;;20.40;89.10;;;;;;6158497;23;20013;-82
2023/06/11 06:32:07;;;;;;;8.85;6.65;;;20.40;88.90;;;;;;6159741;23;20028;-83
2023/06/11 06:34:32;;;;;;;9.65;6.88;;;20.50;89.00;;;;;;6159931;23;20017;-83
2023/06/11 06:36:58;;;;;;;11.25;6.95;;;20.60;89.20;;;;;;6185735;23;20013;-83
2023/06/11 06:39:24;;;;;;;10.85;7.50;;;20.60;89.00;;;;;;6158908;23;20020;-83
2023/06/11 06:41:49;;;;;;;11.75;7.30;;;20.70;89.50;;;;;;6157131;23;20025;-83
2023/06/11 06:44:15;;;;;;;10.38;6.70;;;20.80;89.90;;;;;;6185329;23;20019;-83
2023/06/11 06:46:41;;;;;;;9.52;7.20;;;20.90;89.10;;;;;;6158274;23;20350;-83
2023/06/11 06:49:06;;;;;;;10.88;7.15;;;20.90;89.10;;;;;;6184254;23;20049;-83
2023/06/11 06:51:32;;;;;;;10.07;6.88;;;21.00;88.80;;;;;;6185756;23;20031;-84
2023/06/11 06:53:58;;;;;;;10.68;6.85;;;21.00;88.70;;;;;;6158513;23;20013;-83
2023/06/11 06:56:24;;;;;;;8.60;5.88;;;21.20;88.60;;;;;;6157819;23;20092;-85
2023/06/11 06:58:50;;;;;;;8.48;6.70;;;21.20;88.50;;;;;;6157891;23;20437;-84
2023/06/11 07:01:15;;;;;;;9.30;6.43;;;21.30;88.40;;;;;;6184595;23;20465;-84
2023/06/11 07:03:41;;;;;;;9.13;6.68;;;21.40;88.30;;;;;;6157784;23;20067;-85
2023/06/11 07:06:08;;;;;;;11.43;6.90;;;21.50;88.20;;;;;;6185296;23;20068;-85
2023/06/11 07:08:34;;;;;;;9.10;6.90;;;21.60;88.40;;;;;;6184013;23;20341;-86
2023/06/11 07:11:00;;;;;;;10.68;6.90;;;21.70;88.00;;;;;;6158611;23;20223;-85
2023/06/11 07:13:25;;;;;;;8.13;6.35;;;21.80;88.20;;;;;;6185346;23;20020;-85
2023/06/11 07:15:51;;;;;;;11.00;7.05;;;21.90;88.30;;;;;;6160859;23;20418;-94
2023/06/11 07:18:17;;;;;;;7.55;5.80;;;22.00;87.90;;;;;;6163664;23;20025;-95
2023/06/11 07:20:43;;;;;;;10.60;6.85;;;22.10;87.50;;;;;;6193342;23;20024;-95
2023/06/11 07:23:09;;;;;;;7.55;6.18;;;22.20;87.30;;;;;;6167710;23;20064;-95
2023/06/11 07:25:37;;;;;;;7.70;6.22;;;22.30;87.10;;;;;;6160065;23;20319;-83
2023/06/11 07:28:04;;;;;;;8.00;5.82;;;22.40;87.00;;;;;;6185013;23;20496;-84
2023/06/11 07:30:31;;;;;;;8.77;6.57;;;22.50;87.00;;;;;;6184565;23;20013;-83
2023/06/11 07:32:56;;;;;;;8.25;6.22;;;22.60;86.70;;;;;;6158511;23;20017;-84
2023/06/11 07:35:23;;;;;;;9.05;5.82;;;22.70;86.30;;;;;;6184986;23;20075;-85
2023/06/11 07:37:49;;;;;;;10.50;6.88;;;22.80;85.90;;;;;;6157659;23;20045;-84
2023/06/11 07:40:15;;;;;;;8.93;6.07;;;22.90;85.60;;;;;;6158378;23;20028;-84
2023/06/11 07:42:45;;;;;;;8.32;5.90;;;23.00;85.50;;;;;;6158263;23;20021;-84
2023/06/11 07:45:14;;;;;;;9.43;6.70;;;23.10;85.30;;;;;;6184159;23;20020;-85
2023/06/11 07:47:41;;;;;;;8.90;5.82;;;23.20;84.90;;;;;;6184689;23;20462;-85
2023/06/11 07:50:07;;;;;;;11.88;6.57;;;23.30;84.90;;;;;;6158640;23;20442;-85
2023/06/11 07:52:33;;;;;;;6.85;5.15;;;23.50;84.90;;;;;;6183722;23;20116;-86
2023/06/11 07:54:59;;;;;;;7.95;5.63;;;23.50;84.60;;;;;;6160167;23;20469;-85
2023/06/11 07:57:25;;;;;;;7.53;6.60;;;23.60;84.50;;;;;;6186422;23;20052;-86
2023/06/11 07:59:51;;;;;;;8.18;5.75;;;23.70;83.70;;;;;;6185828;23;20013;-85
2023/06/11 08:02:17;;;;;;;7.05;5.82;;;23.80;83.60;;;;;;6160426;23;20021;-84
2023/06/11 08:04:43;;;;;;;8.63;5.80;;;23.90;83.70;;;;;;6185736;23;20056;-85
2023/06/11 08:07:09;;;;;;;7.70;5.63;;;24.00;83.50;;;;;;6186922;23;20017;-85
2023/06/11 08:09:35;;;;;;;8.52;6.00;;;24.10;83.40;;;;;;6159573;23;20396;-85
2023/06/11 08:12:05;;;;;;;7.63;5.78;;;24.20;83.30;;;;;;6185435;23;20437;-85
2023/06/11 08:14:32;;;;;;;10.25;6.20;;;24.30;82.80;;;;;;6159823;23;20499;-84
2023/06/11 08:16:58;;;;;;;7.35;5.38;;;24.40;82.50;;;;;;6186493;23;20158;-85
2023/06/11 08:19:24;;;;;;;10.02;6.00;;;24.50;82.40;;;;;;6159223;23;20076;-84
2023/06/11 08:21:49;;;;;;;12.07;6.43;;;24.60;81.40;;;;;;6159388;23;20199;-84
2023/06/11 08:24:16;;;;;;;10.15;5.65;;;24.70;81.00;;;;;;6159942;23;20013;-85
2023/06/11 08:26:42;;;;;;;7.65;5.85;;;24.80;80.50;;;;;;6183929;23;20408;-86
2023/06/11 08:29:08;;;;;;;9.35;5.57;;;24.90;80.00;;;;;;6186444;23;20045;-86
2023/06/11 08:31:33;;;;;;;6.68;5.07;;;25.00;80.80;;;;;;6184952;23;20096;-86
2023/06/11 08:33:59;;;;;;;7.45;5.78;;;25.10;80.80;;;;;;6159026;23;20017;-87
2023/06/11 08:36:25;;;;;;;8.63;5.70;;;25.20;80.70;;;;;;6186625;23;20028;-88
2023/06/11 08:38:51;;;;;;;6.85;5.63;;;25.30;80.90;;;;;;6159516;23;20021;-86
2023/06/11 08:41:17;;;;;;;8.88;5.72;;;25.40;80.80;;;;;;6185368;23;20337;-87
2023/06/11 08:43:43;;;;;;;10.27;5.50;;;25.50;78.60;;;;;;6159557;23;20013;-87
2023/06/11 08:46:15;;;;;;;7.90;5.75;;;25.60;77.90;;;;;;6159209;23;20027;-87
2023/06/11 08:48:44;;;;;;;8.45;5.63;;;25.70;77.00;;;;;;6159270;23;20071;-86
2023/06/11 08:51:11;;;;;;;9.00;5.53;;;25.80;76.20;;;;;;6186068;23;20422;-85
2023/06/11 08:53:38;;;;;;;7.25;5.10;;;25.90;77.10;;;;;;6159721;23;20017;-86
2023/06/11 08:56:08;;;;;;;8.80;5.05;;;26.00;78.40;;;;;;6158762;23;20067;-87
2023/06/11 08:58:35;;;;;;;8.38;5.18;;;26.10;77.70;;;;;;6186330;23;20064;-87
2023/06/11 09:01:11;;;;;;;9.75;5.32;;;26.20;78.40;;;;;;6185137;23;20079;-87
2023/06/11 09:03:37;;;;;;;8.95;5.63;;;26.20;77.10;;;;;;6161419;23;20021;-93
2023/06/11 09:06:04;;;;;;;8.93;5.32;;;26.40;77.60;;;;;;6159529;23;20014;-86
2023/06/11 09:08:30;;;;;;;9.27;5.65;;;26.40;77.30;;;;;;6158545;23;20025;-86
2023/06/11 09:10:56;;;;;;;10.32;5.25;;;26.50;76.00;;;;;;6159391;23;20342;-87
2023/06/11 09:13:26;;;;;;;6.95;5.40;;;26.60;76.70;;;;;;6159084;23;20009;-86
2023/06/11 09:15:55;;;;;;;6.95;5.55;;;26.70;76.90;;;;;;6158044;23;20024;-86
2023/06/11 09:18:22;;;;;;;8.05;5.68;;;26.80;73.70;;;;;;6186066;23;20044;-84
2023/06/11 09:21:01;;;;;;;6.97;5.38;;;26.80;73.90;;;;;;6185241;23;20528;-84
2023/06/11 09:23:28;;;;;;;8.18;5.45;;;26.90;74.50;;;;;;6185235;23;20012;-84
2023/06/11 09:25:53;;;;;;;8.43;5.43;;;27.00;75.70;;;;;;6158853;23;20547;-84
2023/06/11 09:28:20;;;;;;;9.50;5.25;;;27.10;74.00;;;;;;6185619;23;20021;-86
2023/06/11 09:30:56;;;;;;;10.82;5.30;;;27.10;74.90;;;;;;6184391;23;20017;-86
2023/06/11 09:33:23;;;;;;;7.97;5.93;;;27.20;73.90;;;;;;6159845;23;20075;-87
2023/06/11 09:35:49;;;;;;;7.82;5.35;;;27.30;74.30;;;;;;6185740;23;20021;-87
2023/06/11 09:38:20;;;;;;;8.05;5.72;;;27.40;75.10;;;;;;6184925;23;20017;-85
2023/06/11 09:40:51;;;;;;;7.93;5.50;;;27.50;74.00;;;;;;6159006;23;20044;-86
2023/06/11 09:43:22;;;;;;;7.03;5.00;;;27.60;73.90;;;;;;6158418;23;20021;-83
2023/06/11 09:45:53;;;;;;;7.03;4.80;;;27.60;69.20;;;;;;6185287;23;20030;-83
2023/06/11 09:48:20;;;;;;;8.43;5.07;;;27.70;67.20;;;;;;6186177;23;20024;-84
2023/06/11 09:50:50;;;;;;;9.82;5.13;;;27.80;65.30;;;;;;6184440;23;20020;-83
2023/06/11 09:53:17;;;;;;;5.40;4.63;;;27.90;67.30;;;;;;6158900;23;20091;-83
2023/06/11 09:55:43;;;;;;;7.75;4.90;;;27.90;68.00;;;;;;6185314;23;20059;-84
2023/06/11 09:58:10;;;;;;;6.95;5.05;;;28.00;68.50;;;;;;6185170;23;20021;-81
2023/06/11 10:00:36;;;;;;;8.35;5.10;;;28.10;66.70;;;;;;6158498;23;20053;-81
2023/06/11 10:03:03;;;;;;;7.20;5.15;;;28.10;65.20;;;;;;6159050;23;20028;-81
2023/06/11 10:05:29;;;;;;;7.40;5.15;;;28.20;64.90;;;;;;6184373;23;20013;-81
2023/06/11 10:08:08;;;;;;;8.85;5.40;;;28.20;64.00;;;;;;6158842;23;20043;-82
2023/06/11 10:10:41;;;;;;;6.57;4.97;;;28.30;64.10;;;;;;6159005;23;20449;-81
2023/06/11 10:13:06;;;;;;;;;;;28.30;68.90;;;;;;6158864;23;20020;-84
2023/06/11 10:15:34;;;;;;;7.53;4.88;;;28.40;70.80;;;;;;6185573;23;19916;-83
2023/06/11 10:18:00;;;;;;;9.10;4.95;;;28.40;66.90;;;;;;6185135;23;20067;-84
2023/06/11 10:20:28;;;;;;;8.43;5.03;;;28.50;66.40;;;;;;6184708;23;20458;-83
2023/06/11 10:23:05;;;;;;;6.50;5.00;;;28.60;65.50;;;;;;6159172;23;20445;-84
2023/06/11 10:25:35;;;;;;;8.18;5.43;;;28.70;64.50;;;;;;6157965;23;20024;-84
2023/06/11 10:28:00;;;;;;;5.90;4.47;;;28.80;63.60;;;;;;6185479;23;20025;-83
2023/06/11 10:30:26;;;;;;;6.80;4.60;;;28.80;64.30;;;;;;6159217;23;20385;-83
2023/06/11 10:32:53;;;;;;;8.13;4.40;;;28.90;70.40;;;;;;6157965;23;20021;-84
2023/06/11 10:35:24;;;;;;;7.82;5.00;;;29.00;66.00;;;;;;6185631;23;20064;-84
2023/06/11 10:37:51;;;;;;;7.63;5.13;;;29.10;62.00;;;;;;6184590;23;20040;-84
2023/06/11 10:40:16;;;;;;;6.93;4.63;;;29.10;64.60;;;;;;6184581;23;20013;-84
2023/06/11 10:42:43;;;;;;;7.07;4.60;;;29.20;70.40;;;;;;6185031;23;20327;-83
2023/06/11 10:45:11;;;;;;;9.48;5.03;;;29.30;74.10;;;;;;6185134;23;20013;-85
2023/06/11 10:47:45;;;;;;;7.75;5.03;;;29.40;68.30;;;;;;6183811;23;20023;-82
2023/06/11 10:50:15;;;;;;;7.57;4.90;;;29.40;66.80;;;;;;6185374;23;20032;-83
2023/06/11 10:52:51;;;;;;;5.88;4.72;;;29.50;68.20;;;;;;6184317;23;20032;-83
2023/06/11 10:55:20;;;;;;;8.05;4.90;;;29.50;68.30;;;;;;6184695;23;20333;-83
2023/06/11 10:57:49;;;;;;;6.72;4.85;;;29.60;70.70;;;;;;6158705;23;20091;-84
2023/06/11 11:00:15;;;;;;;7.72;4.50;;;29.60;69.60;;;;;;6158960;23;20048;-84
2023/06/11 11:02:41;;;;;;;8.55;4.63;;;29.70;64.90;;;;;;6157403;23;20496;-83
2023/06/11 11:05:09;;;;;;;7.65;5.05;;;29.80;66.70;;;;;;6158041;23;20028;-83
2023/06/11 11:07:35;;;;;;;8.05;4.60;;;29.90;70.20;;;;;;6184252;23;20013;-84
2023/06/11 11:10:02;;;;;;;7.55;4.68;;;29.90;63.40;;;;;;6159042;23;20021;-83
2023/06/11 11:12:36;;;;;;;6.35;4.57;;;30.00;68.00;;;;;;6185322;23;20092;-83
2023/06/11 11:15:03;;;;;;;8.45;4.90;;;30.00;61.70;;;;;;6183830;23;20060;-83
2023/06/11 11:17:30;;;;;;;8.00;4.63;;;30.00;59.70;;;;;;6158684;23;20021;-82
2023/06/11 11:19:56;;;;;;;6.97;4.78;;;30.10;60.00;;;;;;6158263;23;20024;-83
2023/06/11 11:22:22;;;;;;;5.90;4.57;;;30.10;60.80;;;;;;6157725;23;20373;-80
2023/06/11 11:24:48;;;;;;;6.75;5.18;;;30.20;64.20;;;;;;6184400;23;20020;-80
2023/06/11 11:27:13;;;;;;;6.18;4.20;;;30.30;64.00;;;;;;6158480;23;20021;-80
2023/06/11 11:29:39;;;;;;;5.65;4.30;;;30.30;67.80;;;;;;6186412;23;20513;-80
2023/06/11 11:32:05;;;;;;;7.68;4.30;;;30.40;63.50;;;;;;6187264;23;20009;-80
2023/06/11 11:34:31;;;;;;;6.95;4.55;;;30.40;60.50;;;;;;6187323;23;20056;-80
2023/06/11 11:36:56;;;;;;;5.57;4.10;;;30.40;64.10;;;;;;6184748;23;20031;-80
2023/06/11 11:39:22;;;;;;;6.63;3.85;;;30.50;65.50;;;;;;6160002;23;20092;-80
2023/06/11 11:41:51;;;;;;;6.38;4.03;;;30.50;67.80;;;;;;6160300;23;20053;-81
2023/06/11 11:44:17;;;;;;;7.97;4.70;;;30.70;63.70;;;;;;6185877;23;20013;-80
2023/06/11 11:46:43;;;;;;;7.25;4.45;;;30.70;59.50;;;;;;6186534;23;20017;-82
2023/06/11 11:49:10;;;;;;;7.18;4.65;;;30.70;63.10;;;;;;6160062;23;20374;-82
2023/06/11 11:51:45;;;;;;;6.55;4.47;;;30.80;60.00;;;;;;6185465;23;20053;-82
2023/06/11 11:54:15;;;;;;;6.30;4.40;;;30.80;52.80;;;;;;6186340;23;20055;-82
2023/06/11 11:56:41;;;;;;;6.57;4.43;;;30.80;59.50;;;;;;6158674;23;20027;-83
2023/06/11 11:59:22;;;;;;;7.53;4.60;;;30.90;59.60;;;;;;6186985;23;20017;-81
2023/06/11 12:01:55;;;;;;;9.68;4.80;;;30.90;58.60;;;;;;6159713;23;20091;-81
2023/06/11 12:04:22;;;;;;;7.35;4.60;;;30.90;54.40;;;;;;6159104;23;20017;-83
2023/06/11 12:06:47;;;;;;;7.70;4.15;;;31.00;54.40;;;;;;6159717;23;20024;-82
2023/06/11 12:09:13;;;;;;;8.20;4.80;;;31.00;50.60;;;;;;6159849;23;20017;-83
2023/06/11 12:11:39;;;;;;;8.52;4.72;;;31.00;52.00;;;;;;6158767;23;20013;-83
2023/06/11 12:14:04;;;;;;;7.03;4.40;;;31.00;51.30;;;;;;6185911;23;20009;-85
2023/06/11 12:16:30;;;;;;;7.00;4.40;;;31.10;54.70;;;;;;6159924;23;20021;-84
2023/06/11 12:18:59;;;;;;;6.97;4.25;;;31.10;55.60;;;;;;6158622;23;20092;-84
2023/06/11 12:21:26;;;;;;;6.63;5.25;;;31.20;54.80;;;;;;6159830;23;20028;-84
2023/06/11 12:23:52;;;;;;;9.07;5.22;;;31.20;54.60;;;;;;6159712;23;20017;-83
2023/06/11 12:26:20;;;;;;;6.18;4.50;;;31.20;54.30;;;;;;6185100;23;20027;-84
2023/06/11 12:28:46;;;;;;;8.55;4.47;;;31.30;55.90;;;;;;6186286;23;20027;-84
2023/06/11 12:31:12;;;;;;;5.93;4.43;;;31.30;55.80;;;;;;6185847;23;20101;-83
2023/06/11 12:33:38;;;;;;;7.70;4.50;;;31.30;60.50;;;;;;6185114;23;20021;-83
2023/06/11 12:36:04;;;;;;;6.07;4.35;;;31.30;58.30;;;;;;6159784;23;20449;-83
2023/06/11 12:38:30;;;;;;;6.32;4.40;;;31.40;58.50;;;;;;6159793;23;20036;-83
2023/06/11 12:40:56;;;;;;;6.95;4.40;;;31.40;58.10;;;;;;6184363;23;20033;-83
2023/06/11 12:43:21;;;;;;;7.90;4.80;;;31.40;52.50;;;;;;6186141;23;20023;-83